Camp Verde, AZ

11:33 AM MST on September 16, 2014 (GMT -0700)
RANCH ACRES | Change Station
CLOSE
Current Station
Personal Weather Station
Location: Camp Verde, AZ
Elevation: 3077 ft
Nearby Weather Stations
Active Advisory: Flash Flood Watch

Elev 3077 ft 34.57 °N, 111.86 °W | Updated 1 second ago

Partly Cloudy
Partly Cloudy
85.1 °F
Feels Like 85 °F
N
4.5
Wind Variable Wind from SW
Gusts 4.9 mph

Today
High -- | Low -- °F
--% Chance of Precip.
Yesterday
High -- | Low -- °F
Precip. -- in
6:11 AM 6:32 PM
Last Quarter, 43% visible
Pressure 30.18 in
Visibility 10.0 miles
Clouds Mostly Cloudy 10000 ft
Heat Index 85 °F
Dew Point 61 °F
Humidity 44%
Rainfall 0.00 in
Snow Depth 2 in , 0 in , 2 in
UV 5 out of 12
Pollen 6.30 out of 12
Air Quality Not available.
Flu Activity Not available.
METAR KSEZ 161815Z AUTO 16007KT 10SM BKN100 27/13 A3018 RMK AO2

More Conditions Fewer Conditions

Pressure 30.18 in
Visibility 10.0 miles
Clouds Mostly Cloudy 10000 ft
Heat Index 85 °F
Dew Point 61 °F
Humidity 44%
Rainfall 0.00 in
Snow Depth 2 in , 0 in , 2 in
UV 5 out of 12
Pollen 6.30 out of 12
Air Quality Not available.
Flu Activity Not available.
METAR KSEZ 161815Z AUTO 16007KT 10SM BKN100 27/13 A3018 RMK AO2

More Conditions Fewer Conditions

10-Day Weather Forecast

Almanac

Astronomy

Sep. 16, 2014 Rise Set
Actual Time 6:11 AM MST 6:32 PM MST
Civil Twilight 5:45 AM MST 6:57 PM MST
Nautical Twilight 5:16 AM MST 7:27 PM MST
Astronomical Twilight 4:46 AM MST 7:57 PM MST
Moon No Moon Rise 1:48 PM MST
Length of Visible Light 13h 11m
Length of Day
12h 21m
Tomorrow will be 2m 9s shorter.
Last Quarter, 43% of the Moon is Illuminated
Today
Last Quarter
Sep 24
New
Oct 1
First Quarter
Oct 8
Full
Oct 15
Last Quarter

Today's Extremes

State Highs State Lows

Community

WunderPhotos

Upload Photos

1,753,856 photos uploaded!

Nearby

Snow Depth

Station Depth Elevation
Workman Creek 2 in 6900 ft
Maverick Fork 0 in 9200 ft
Beaver Head 2 in 7990 ft

Earthquake Activity

City Distance Mag. Time & Date
No recent earthquake activity has been reported nearby.
Minimum magnitude displayed is 2.5.

Coastal Water Temperatures

Place Temperature
No Stations Reporting

Nearby Weather Stations